sensor_id;sensor_type;location;lat;lon;timestamp;pressure;altitude;pressure_sealevel;temperature;humidity
13604;BME280;24578;48.264;11.436;2023-06-26T00:01:45;96211.84;;;15.37;100.00
13604;BME280;24578;48.264;11.436;2023-06-26T00:05:08;96222.69;;;15.33;100.00
13604;BME280;24578;48.264;11.436;2023-06-26T00:08:30;96217.75;;;15.30;100.00
13604;BME280;24578;48.264;11.436;2023-06-26T00:11:51;96224.19;;;15.26;100.00
13604;BME280;24578;48.264;11.436;2023-06-26T00:15:13;96227.22;;;15.21;100.00
13604;BME280;24578;48.264;11.436;2023-06-26T00:18:35;96224.75;;;15.19;100.00
13604;BME280;24578;48.264;11.436;2023-06-26T00:21:57;96225.06;;;15.16;100.00
13604;BME280;24578;48.264;11.436;2023-06-26T00:25:19;96222.84;;;15.12;100.00
13604;BME280;24578;48.264;11.436;2023-06-26T00:28:41;96228.22;;;15.10;100.00
13604;BME280;24578;48.264;11.436;2023-06-26T00:32:03;96224.91;;;15.08;100.00
13604;BME280;24578;48.264;11.436;2023-06-26T00:35:24;96237.25;;;15.06;100.00
13604;BME280;24578;48.264;11.436;2023-06-26T00:38:46;96228.22;;;15.00;100.00
13604;BME280;24578;48.264;11.436;2023-06-26T00:42:08;96222.19;;;15.00;100.00
13604;BME280;24578;48.264;11.436;2023-06-26T00:45:30;96226.56;;;14.99;100.00
13604;BME280;24578;48.264;11.436;2023-06-26T00:48:54;96230.28;;;14.97;100.00
13604;BME280;24578;48.264;11.436;2023-06-26T00:52:17;96222.75;;;14.94;100.00
13604;BME280;24578;48.264;11.436;2023-06-26T00:55:39;96226.44;;;14.91;100.00
13604;BME280;24578;48.264;11.436;2023-06-26T00:59:00;96231.09;;;14.87;100.00
13604;BME280;24578;48.264;11.436;2023-06-26T01:02:22;96233.84;;;14.86;100.00
13604;BME280;24578;48.264;11.436;2023-06-26T01:05:45;96227.16;;;14.83;100.00
13604;BME280;24578;48.264;11.436;2023-06-26T01:09:10;96229.47;;;14.76;100.00
13604;BME280;24578;48.264;11.436;2023-06-26T01:12:33;96227.25;;;14.72;100.00
13604;BME280;24578;48.264;11.436;2023-06-26T01:15:55;96228.91;;;14.63;100.00
13604;BME280;24578;48.264;11.436;2023-06-26T01:19:27;96225.31;;;14.54;100.00
13604;BME280;24578;48.264;11.436;2023-06-26T01:23:06;96223.50;;;14.45;100.00
13604;BME280;24578;48.264;11.436;2023-06-26T01:26:30;96227.47;;;14.39;100.00
13604;BME280;24578;48.264;11.436;2023-06-26T01:29:57;96224.75;;;14.31;100.00
13604;BME280;24578;48.264;11.436;2023-06-26T01:33:21;96218.28;;;14.25;100.00
13604;BME280;24578;48.264;11.436;2023-06-26T01:36:44;96225.78;;;14.19;100.00
13604;BME280;24578;48.264;11.436;2023-06-26T01:40:07;96222.78;;;14.13;100.00
13604;BME280;24578;48.264;11.436;2023-06-26T01:43:38;96215.38;;;14.09;100.00
13604;BME280;24578;48.264;11.436;2023-06-26T01:47:05;96213.75;;;14.08;100.00
13604;BME280;24578;48.264;11.436;2023-06-26T01:50:31;96207.97;;;14.04;100.00
13604;BME280;24578;48.264;11.436;2023-06-26T01:53:57;96208.34;;;13.99;100.00
13604;BME280;24578;48.264;11.436;2023-06-26T01:57:20;96210.25;;;13.97;100.00
13604;BME280;24578;48.264;11.436;2023-06-26T02:00:44;96214.13;;;13.93;100.00
13604;BME280;24578;48.264;11.436;2023-06-26T02:04:06;96206.81;;;13.87;100.00
13604;BME280;24578;48.264;11.436;2023-06-26T02:07:28;96215.84;;;13.83;100.00
13604;BME280;24578;48.264;11.436;2023-06-26T02:10:50;96213.63;;;13.78;100.00
13604;BME280;24578;48.264;11.436;2023-06-26T02:14:11;96213.91;;;13.75;100.00
13604;BME280;24578;48.264;11.436;2023-06-26T02:17:33;96216.91;;;13.70;100.00
13604;BME280;24578;48.264;11.436;2023-06-26T02:20:55;96218.78;;;13.68;100.00
13604;BME280;24578;48.264;11.436;2023-06-26T02:24:17;96218.25;;;13.65;100.00
13604;BME280;24578;48.264;11.436;2023-06-26T02:27:39;96221.09;;;13.62;100.00
13604;BME280;24578;48.264;11.436;2023-06-26T02:31:01;96225.75;;;13.58;100.00
13604;BME280;24578;48.264;11.436;2023-06-26T02:34:22;96223.41;;;13.55;100.00
13604;BME280;24578;48.264;11.436;2023-06-26T02:37:44;96215.75;;;13.53;100.00
13604;BME280;24578;48.264;11.436;2023-06-26T02:41:07;96218.44;;;13.52;100.00
13604;BME280;24578;48.264;11.436;2023-06-26T02:44:28;96223.78;;;13.50;100.00
13604;BME280;24578;48.264;11.436;2023-06-26T02:47:50;96224.59;;;13.51;100.00
13604;BME280;24578;48.264;11.436;2023-06-26T02:51:12;96213.78;;;13.46;100.00
13604;BME280;24578;48.264;11.436;2023-06-26T02:54:34;96219.94;;;13.45;100.00
13604;BME280;24578;48.264;11.436;2023-06-26T02:57:56;96225.38;;;13.42;100.00
13604;BME280;24578;48.264;11.436;2023-06-26T03:01:18;96217.59;;;13.42;100.00
13604;BME280;24578;48.264;11.436;2023-06-26T03:04:41;96212.38;;;13.42;100.00
13604;BME280;24578;48.264;11.436;2023-06-26T03:08:05;96217.44;;;13.43;100.00
13604;BME280;24578;48.264;11.436;2023-06-26T03:11:27;96214.84;;;13.43;100.00
13604;BME280;24578;48.264;11.436;2023-06-26T03:14:48;96221.84;;;13.43;100.00
13604;BME280;24578;48.264;11.436;2023-06-26T03:18:10;96215.09;;;13.40;100.00
13604;BME280;24578;48.264;11.436;2023-06-26T03:21:32;96213.44;;;13.39;100.00
13604;BME280;24578;48.264;11.436;2023-06-26T03:24:54;96210.84;;;13.39;100.00
13604;BME280;24578;48.264;11.436;2023-06-26T03:28:17;96215.94;;;13.40;100.00
13604;BME280;24578;48.264;11.436;2023-06-26T03:31:38;96208.00;;;13.42;100.00
13604;BME280;24578;48.264;11.436;2023-06-26T03:35:01;96220.88;;;13.44;100.00
13604;BME280;24578;48.264;11.436;2023-06-26T03:38:24;96213.50;;;13.49;100.00
13604;BME280;24578;48.264;11.436;2023-06-26T03:41:47;96222.59;;;13.54;100.00
13604;BME280;24578;48.264;11.436;2023-06-26T03:45:09;96226.56;;;13.59;100.00
13604;BME280;24578;48.264;11.436;2023-06-26T03:48:30;96217.34;;;13.76;100.00
13604;BME280;24578;48.264;11.436;2023-06-26T03:51:52;96218.13;;;14.17;100.00
13604;BME280;24578;48.264;11.436;2023-06-26T03:55:14;96212.88;;;14.68;100.00
13604;BME280;24578;48.264;11.436;2023-06-26T03:58:36;96211.00;;;15.27;100.00
13604;BME280;24578;48.264;11.436;2023-06-26T04:01:58;96214.97;;;15.89;100.00
13604;BME280;24578;48.264;11.436;2023-06-26T04:05:21;96213.34;;;16.52;100.00
13604;BME280;24578;48.264;11.436;2023-06-26T04:08:43;96207.63;;;17.02;100.00
13604;BME280;24578;48.264;11.436;2023-06-26T04:12:06;96214.78;;;17.53;100.00
13604;BME280;24578;48.264;11.436;2023-06-26T04:15:27;96214.75;;;18.14;100.00
13604;BME280;24578;48.264;11.436;2023-06-26T04:18:49;96214.59;;;18.75;100.00
13604;BME280;24578;48.264;11.436;2023-06-26T04:22:11;96214.56;;;19.41;100.00
13604;BME280;24578;48.264;11.436;2023-06-26T04:25:32;96209.66;;;20.03;100.00
13604;BME280;24578;48.264;11.436;2023-06-26T04:28:54;96206.75;;;20.52;100.00
13604;BME280;24578;48.264;11.436;2023-06-26T04:32:16;96213.69;;;21.00;100.00
13604;BME280;24578;48.264;11.436;2023-06-26T04:35:38;96213.84;;;21.52;100.00
13604;BME280;24578;48.264;11.436;2023-06-26T04:38:59;96209.09;;;21.85;100.00
13604;BME280;24578;48.264;11.436;2023-06-26T04:42:21;96215.09;;;22.31;100.00
13604;BME280;24578;48.264;11.436;2023-06-26T04:45:43;96212.91;;;22.71;100.00
13604;BME280;24578;48.264;11.436;2023-06-26T04:49:05;96210.81;;;23.32;100.00
13604;BME280;24578;48.264;11.436;2023-06-26T04:52:26;96204.22;;;23.84;100.00
13604;BME280;24578;48.264;11.436;2023-06-26T04:55:52;96209.09;;;24.23;97.08
13604;BME280;24578;48.264;11.436;2023-06-26T04:59:14;96201.50;;;24.75;89.37
13604;BME280;24578;48.264;11.436;2023-06-26T05:02:36;96201.09;;;25.32;85.01
13604;BME280;24578;48.264;11.436;2023-06-26T05:05:58;96197.19;;;25.81;76.98
13604;BME280;24578;48.264;11.436;2023-06-26T05:09:20;96197.88;;;26.22;70.71
13604;BME280;24578;48.264;11.436;2023-06-26T05:12:41;96196.31;;;26.47;67.88
13604;BME280;24578;48.264;11.436;2023-06-26T05:16:03;96196.22;;;26.99;63.13
13604;BME280;24578;48.264;11.436;2023-06-26T05:19:25;96196.56;;;27.28;60.12
13604;BME280;24578;48.264;11.436;2023-06-26T05:22:47;96192.31;;;27.71;57.36
13604;BME280;24578;48.264;11.436;2023-06-26T05:26:09;96199.09;;;28.04;53.97
13604;BME280;24578;48.264;11.436;2023-06-26T05:29:33;96198.84;;;28.73;50.72
13604;BME280;24578;48.264;11.436;2023-06-26T05:32:55;96193.66;;;28.78;48.99
13604;BME280;24578;48.264;11.436;2023-06-26T05:36:18;96195.97;;;29.41;45.56
13604;BME280;24578;48.264;11.436;2023-06-26T05:39:40;96198.06;;;29.51;43.14
13604;BME280;24578;48.264;11.436;2023-06-26T05:43:02;96201.97;;;29.36;44.27
13604;BME280;24578;48.264;11.436;2023-06-26T05:46:24;96205.13;;;29.69;43.90
13604;BME280;24578;48.264;11.436;2023-06-26T05:49:46;96190.25;;;29.97;41.92
13604;BME280;24578;48.264;11.436;2023-06-26T05:53:08;96200.31;;;30.06;43.15
13604;BME280;24578;48.264;11.436;2023-06-26T05:56:30;96196.16;;;30.40;41.59
13604;BME280;24578;48.264;11.436;2023-06-26T05:59:52;96188.00;;;30.46;41.63
13604;BME280;24578;48.264;11.436;2023-06-26T06:05:55;96194.50;;;31.87;39.27
13604;BME280;24578;48.264;11.436;2023-06-26T06:09:16;96179.81;;;32.34;39.43
13604;BME280;24578;48.264;11.436;2023-06-26T06:12:37;96185.38;;;32.55;37.21
13604;BME280;24578;48.264;11.436;2023-06-26T06:15:59;96179.75;;;32.84;34.94
13604;BME280;24578;48.264;11.436;2023-06-26T06:19:20;96181.72;;;32.93;35.32
13604;BME280;24578;48.264;11.436;2023-06-26T06:22:41;96184.25;;;33.05;34.68
13604;BME280;24578;48.264;11.436;2023-06-26T06:26:02;96180.72;;;33.00;34.40
13604;BME280;24578;48.264;11.436;2023-06-26T06:29:23;96182.72;;;33.20;34.57
13604;BME280;24578;48.264;11.436;2023-06-26T06:32:44;96182.78;;;33.30;34.09
13604;BME280;24578;48.264;11.436;2023-06-26T06:36:05;96179.63;;;33.86;34.19
13604;BME280;24578;48.264;11.436;2023-06-26T06:39:26;96175.09;;;34.66;32.85
13604;BME280;24578;48.264;11.436;2023-06-26T06:42:47;96171.03;;;35.36;30.57
13604;BME280;24578;48.264;11.436;2023-06-26T06:46:08;96176.06;;;35.79;30.44
13604;BME280;24578;48.264;11.436;2023-06-26T06:49:29;96177.94;;;35.84;29.32
13604;BME280;24578;48.264;11.436;2023-06-26T06:52:49;96169.81;;;36.04;28.96
13604;BME280;24578;48.264;11.436;2023-06-26T06:56:10;96175.19;;;35.94;29.49
13604;BME280;24578;48.264;11.436;2023-06-26T06:59:31;96166.50;;;36.63;29.33
13604;BME280;24578;48.264;11.436;2023-06-26T07:02:52;96172.25;;;37.25;28.13
13604;BME280;24578;48.264;11.436;2023-06-26T07:06:13;96181.19;;;37.74;27.39
13604;BME280;24578;48.264;11.436;2023-06-26T07:09:34;96171.59;;;38.31;27.32
13604;BME280;24578;48.264;11.436;2023-06-26T07:12:55;96176.31;;;37.52;27.46
13604;BME280;24578;48.264;11.436;2023-06-26T07:16:16;96171.44;;;38.03;26.31
13604;BME280;24578;48.264;11.436;2023-06-26T07:19:37;96169.09;;;37.96;27.04
13604;BME280;24578;48.264;11.436;2023-06-26T07:22:58;96172.09;;;38.14;26.31
13604;BME280;24578;48.264;11.436;2023-06-26T07:26:19;96170.81;;;38.68;24.79
13604;BME280;24578;48.264;11.436;2023-06-26T07:29:42;96163.50;;;38.50;24.33
13604;BME280;24578;48.264;11.436;2023-06-26T07:33:03;96155.59;;;38.34;25.25
13604;BME280;24578;48.264;11.436;2023-06-26T07:36:24;96168.28;;;38.58;24.70
13604;BME280;24578;48.264;11.436;2023-06-26T07:39:45;96164.09;;;38.85;25.33
13604;BME280;24578;48.264;11.436;2023-06-26T07:43:06;96159.19;;;38.68;24.74
13604;BME280;24578;48.264;11.436;2023-06-26T07:46:27;96168.41;;;38.86;24.81
13604;BME280;24578;48.264;11.436;2023-06-26T07:49:48;96163.13;;;39.56;24.77
13604;BME280;24578;48.264;11.436;2023-06-26T07:53:09;96162.03;;;39.57;23.75
13604;BME280;24578;48.264;11.436;2023-06-26T07:56:30;96158.81;;;39.41;24.77
13604;BME280;24578;48.264;11.436;2023-06-26T07:59:51;96158.16;;;39.91;23.35
13604;BME280;24578;48.264;11.436;2023-06-26T08:03:12;96157.50;;;40.08;22.58
13604;BME280;24578;48.264;11.436;2023-06-26T08:06:33;96153.56;;;39.78;22.57
13604;BME280;24578;48.264;11.436;2023-06-26T08:09:54;96156.09;;;40.25;23.14
13604;BME280;24578;48.264;11.436;2023-06-26T08:15:52;96142.72;;;40.28;21.78
13604;BME280;24578;48.264;11.436;2023-06-26T08:19:13;96151.41;;;40.76;21.94
13604;BME280;24578;48.264;11.436;2023-06-26T08:22:34;96149.97;;;40.05;23.21
13604;BME280;24578;48.264;11.436;2023-06-26T08:25:55;96143.13;;;40.58;22.48
13604;BME280;24578;48.264;11.436;2023-06-26T08:29:19;96145.44;;;41.11;22.51
13604;BME280;24578;48.264;11.436;2023-06-26T08:32:40;96137.28;;;40.42;23.30
13604;BME280;24578;48.264;11.436;2023-06-26T08:36:01;96145.09;;;39.93;22.60
13604;BME280;24578;48.264;11.436;2023-06-26T08:39:22;96146.94;;;40.57;22.36
13604;BME280;24578;48.264;11.436;2023-06-26T08:42:43;96145.78;;;41.18;22.77
13604;BME280;24578;48.264;11.436;2023-06-26T08:46:04;96138.47;;;41.18;22.84
13604;BME280;24578;48.264;11.436;2023-06-26T08:49:28;96134.47;;;41.24;21.95
13604;BME280;24578;48.264;11.436;2023-06-26T08:52:53;96143.53;;;41.11;22.35
13604;BME280;24578;48.264;11.436;2023-06-26T08:56:17;96140.84;;;41.20;21.84
13604;BME280;24578;48.264;11.436;2023-06-26T08:59:42;96133.41;;;41.03;22.31
13604;BME280;24578;48.264;11.436;2023-06-26T09:03:03;96129.38;;;41.23;20.56
13604;BME280;24578;48.264;11.436;2023-06-26T09:06:24;96125.38;;;40.98;21.58
13604;BME280;24578;48.264;11.436;2023-06-26T09:09:45;96123.19;;;40.77;22.63
13604;BME280;24578;48.264;11.436;2023-06-26T09:13:06;96126.47;;;41.19;20.25
13604;BME280;24578;48.264;11.436;2023-06-26T09:16:27;96114.66;;;41.15;19.96
13604;BME280;24578;48.264;11.436;2023-06-26T09:19:48;96118.84;;;40.53;20.48
13604;BME280;24578;48.264;11.436;2023-06-26T09:23:09;96119.34;;;40.55;20.86
13604;BME280;24578;48.264;11.436;2023-06-26T09:26:30;96113.28;;;41.04;21.06
13604;BME280;24578;48.264;11.436;2023-06-26T09:29:53;96109.44;;;41.05;20.90
13604;BME280;24578;48.264;11.436;2023-06-26T09:33:17;96105.94;;;41.76;19.67
13604;BME280;24578;48.264;11.436;2023-06-26T09:36:38;96106.31;;;42.19;21.08
13604;BME280;24578;48.264;11.436;2023-06-26T09:39:59;96109.94;;;41.88;20.58
13604;BME280;24578;48.264;11.436;2023-06-26T09:43:20;96106.50;;;41.55;20.16
13604;BME280;24578;48.264;11.436;2023-06-26T09:46:44;96104.19;;;40.77;20.66
13604;BME280;24578;48.264;11.436;2023-06-26T09:50:05;96099.16;;;40.84;20.71
13604;BME280;24578;48.264;11.436;2023-06-26T09:53:41;96095.66;;;40.92;20.77
13604;BME280;24578;48.264;11.436;2023-06-26T09:57:09;96089.13;;;40.93;20.66
13604;BME280;24578;48.264;11.436;2023-06-26T10:00:30;96083.69;;;40.62;20.99
13604;BME280;24578;48.264;11.436;2023-06-26T10:03:51;96088.63;;;41.14;19.27
13604;BME280;24578;48.264;11.436;2023-06-26T10:07:12;96081.91;;;41.52;18.86
13604;BME280;24578;48.264;11.436;2023-06-26T10:10:34;96079.50;;;41.10;18.95
13604;BME280;24578;48.264;11.436;2023-06-26T10:13:56;96077.47;;;41.24;19.87
13604;BME280;24578;48.264;11.436;2023-06-26T10:17:19;96078.09;;;41.21;20.01
13604;BME280;24578;48.264;11.436;2023-06-26T10:20:41;96079.81;;;40.17;21.86
13604;BME280;24578;48.264;11.436;2023-06-26T10:24:03;96080.50;;;41.14;20.50
13604;BME280;24578;48.264;11.436;2023-06-26T10:27:25;96072.91;;;40.71;20.53
13604;BME280;24578;48.264;11.436;2023-06-26T10:30:48;96073.72;;;41.03;21.05
13604;BME280;24578;48.264;11.436;2023-06-26T10:34:11;96071.75;;;41.75;19.74
13604;BME280;24578;48.264;11.436;2023-06-26T10:37:45;96070.00;;;40.67;20.41
13604;BME280;24578;48.264;11.436;2023-06-26T10:41:10;96066.09;;;40.59;21.32
13604;BME280;24578;48.264;11.436;2023-06-26T10:44:39;96073.47;;;41.13;21.43
13604;BME280;24578;48.264;11.436;2023-06-26T10:48:01;96073.00;;;41.69;18.99
13604;BME280;24578;48.264;11.436;2023-06-26T10:51:22;96055.47;;;41.26;20.12
13604;BME280;24578;48.264;11.436;2023-06-26T10:54:43;96056.19;;;39.44;21.89
13604;BME280;24578;48.264;11.436;2023-06-26T10:58:04;96065.00;;;40.38;21.38
13604;BME280;24578;48.264;11.436;2023-06-26T11:01:25;96063.06;;;39.51;22.37
13604;BME280;24578;48.264;11.436;2023-06-26T11:04:49;96067.06;;;37.93;22.83
13604;BME280;24578;48.264;11.436;2023-06-26T11:08:12;96063.56;;;38.78;24.31
13604;BME280;24578;48.264;11.436;2023-06-26T11:15:19;96061.25;;;40.70;22.33
13604;BME280;24578;48.264;11.436;2023-06-26T11:18:40;96062.00;;;40.93;21.20
13604;BME280;24578;48.264;11.436;2023-06-26T11:22:02;96053.53;;;40.86;20.96
13604;BME280;24578;48.264;11.436;2023-06-26T11:25:23;96054.56;;;41.48;20.17
13604;BME280;24578;48.264;11.436;2023-06-26T11:28:48;96050.00;;;41.75;21.06
13604;BME280;24578;48.264;11.436;2023-06-26T11:32:09;96051.94;;;40.85;21.80
13604;BME280;24578;48.264;11.436;2023-06-26T11:35:30;96056.22;;;41.76;20.99
13604;BME280;24578;48.264;11.436;2023-06-26T11:39:02;96051.78;;;40.90;20.84
13604;BME280;24578;48.264;11.436;2023-06-26T11:42:29;96055.41;;;38.50;24.13
13604;BME280;24578;48.264;11.436;2023-06-26T11:45:50;96057.31;;;36.70;25.22
13604;BME280;24578;48.264;11.436;2023-06-26T11:49:11;96059.13;;;37.10;26.28
13604;BME280;24578;48.264;11.436;2023-06-26T11:52:32;96043.38;;;38.42;24.74
13604;BME280;24578;48.264;11.436;2023-06-26T11:55:53;96050.88;;;38.78;24.06
13604;BME280;24578;48.264;11.436;2023-06-26T11:59:14;96040.75;;;39.31;22.48
13604;BME280;24578;48.264;11.436;2023-06-26T12:02:35;96038.09;;;38.84;24.71
13604;BME280;24578;48.264;11.436;2023-06-26T12:05:56;96034.63;;;39.11;23.72
13604;BME280;24578;48.264;11.436;2023-06-26T12:09:18;96039.31;;;39.48;22.58
13604;BME280;24578;48.264;11.436;2023-06-26T12:12:39;96038.06;;;39.82;22.85
13604;BME280;24578;48.264;11.436;2023-06-26T12:16:01;96039.53;;;39.37;21.69
13604;BME280;24578;48.264;11.436;2023-06-26T12:19:25;96036.59;;;39.20;21.82
13604;BME280;24578;48.264;11.436;2023-06-26T12:22:49;96042.59;;;38.22;21.72
13604;BME280;24578;48.264;11.436;2023-06-26T12:26:19;96048.63;;;37.76;22.75
13604;BME280;24578;48.264;11.436;2023-06-26T12:29:45;96038.47;;;38.44;22.39
13604;BME280;24578;48.264;11.436;2023-06-26T12:33:12;96036.59;;;39.20;22.24
13604;BME280;24578;48.264;11.436;2023-06-26T12:36:39;96042.53;;;39.08;22.65
13604;BME280;24578;48.264;11.436;2023-06-26T12:40:00;96042.78;;;38.45;22.69
13604;BME280;24578;48.264;11.436;2023-06-26T12:43:25;96051.28;;;37.32;24.66
13604;BME280;24578;48.264;11.436;2023-06-26T12:46:47;96036.81;;;37.72;23.52
13604;BME280;24578;48.264;11.436;2023-06-26T12:50:09;96036.56;;;38.26;23.14
13604;BME280;24578;48.264;11.436;2023-06-26T12:53:30;96037.44;;;38.59;23.04
13604;BME280;24578;48.264;11.436;2023-06-26T12:56:51;96036.53;;;37.00;24.06
13604;BME280;24578;48.264;11.436;2023-06-26T13:00:13;96046.03;;;37.22;24.73
13604;BME280;24578;48.264;11.436;2023-06-26T13:03:34;96028.78;;;38.90;22.67
13604;BME280;24578;48.264;11.436;2023-06-26T13:06:55;96021.19;;;39.99;20.73
13604;BME280;24578;48.264;11.436;2023-06-26T13:10:16;96022.16;;;40.40;21.12
13604;BME280;24578;48.264;11.436;2023-06-26T13:13:37;96012.28;;;41.07;20.09
13604;BME280;24578;48.264;11.436;2023-06-26T13:16:59;96011.03;;;40.27;21.91
13604;BME280;24578;48.264;11.436;2023-06-26T13:20:20;96013.16;;;39.01;22.51
13604;BME280;24578;48.264;11.436;2023-06-26T13:23:41;96015.63;;;38.69;22.74
13604;BME280;24578;48.264;11.436;2023-06-26T13:27:02;96012.97;;;38.83;21.91
13604;BME280;24578;48.264;11.436;2023-06-26T13:30:23;96008.94;;;38.48;21.85
13604;BME280;24578;48.264;11.436;2023-06-26T13:33:46;95998.59;;;37.84;22.15
13604;BME280;24578;48.264;11.436;2023-06-26T13:37:09;96005.25;;;37.91;22.98
13604;BME280;24578;48.264;11.436;2023-06-26T13:40:30;96005.97;;;38.49;23.23
13604;BME280;24578;48.264;11.436;2023-06-26T13:43:51;95995.53;;;39.46;21.34
13604;BME280;24578;48.264;11.436;2023-06-26T13:47:12;96004.34;;;39.37;21.37
13604;BME280;24578;48.264;11.436;2023-06-26T13:50:33;95993.84;;;39.72;20.09
13604;BME280;24578;48.264;11.436;2023-06-26T13:53:54;95991.97;;;38.61;21.53
13604;BME280;24578;48.264;11.436;2023-06-26T13:57:20;95989.91;;;38.39;23.00
13604;BME280;24578;48.264;11.436;2023-06-26T14:00:42;95986.13;;;38.21;23.29
13604;BME280;24578;48.264;11.436;2023-06-26T14:04:04;95985.97;;;37.98;21.45
13604;BME280;24578;48.264;11.436;2023-06-26T14:07:25;95985.63;;;38.19;21.60
13604;BME280;24578;48.264;11.436;2023-06-26T14:10:46;95984.31;;;38.82;21.88
13604;BME280;24578;48.264;11.436;2023-06-26T14:14:07;95970.84;;;39.61;20.57
13604;BME280;24578;48.264;11.436;2023-06-26T14:17:28;95975.09;;;39.39;20.65
13604;BME280;24578;48.264;11.436;2023-06-26T14:20:49;95972.44;;;38.31;22.05
13604;BME280;24578;48.264;11.436;2023-06-26T14:24:10;95987.59;;;37.37;23.56
13604;BME280;24578;48.264;11.436;2023-06-26T14:27:31;95974.03;;;36.69;24.01
13604;BME280;24578;48.264;11.436;2023-06-26T14:30:52;95976.63;;;35.75;26.82
13604;BME280;24578;48.264;11.436;2023-06-26T14:34:13;95983.97;;;35.04;26.69
13604;BME280;24578;48.264;11.436;2023-06-26T14:37:35;95975.13;;;34.93;27.29
13604;BME280;24578;48.264;11.436;2023-06-26T14:40:56;95977.91;;;34.57;27.61
13604;BME280;24578;48.264;11.436;2023-06-26T14:44:17;95971.69;;;34.25;25.85
13604;BME280;24578;48.264;11.436;2023-06-26T14:47:38;95978.09;;;33.83;26.79
13604;BME280;24578;48.264;11.436;2023-06-26T14:50:59;95975.91;;;33.59;28.09
13604;BME280;24578;48.264;11.436;2023-06-26T14:54:21;95966.91;;;33.22;28.69
13604;BME280;24578;48.264;11.436;2023-06-26T14:57:42;95966.75;;;33.39;28.76
13604;BME280;24578;48.264;11.436;2023-06-26T15:01:03;95960.91;;;33.68;28.73
13604;BME280;24578;48.264;11.436;2023-06-26T15:04:24;95956.41;;;34.15;29.20
13604;BME280;24578;48.264;11.436;2023-06-26T15:07:45;95965.22;;;33.85;29.42
13604;BME280;24578;48.264;11.436;2023-06-26T15:11:06;95964.47;;;33.90;28.04
13604;BME280;24578;48.264;11.436;2023-06-26T15:14:27;95962.19;;;33.50;29.68
13604;BME280;24578;48.264;11.436;2023-06-26T15:17:48;95961.84;;;33.31;30.48
13604;BME280;24578;48.264;11.436;2023-06-26T15:21:09;95964.19;;;33.07;29.74
13604;BME280;24578;48.264;11.436;2023-06-26T15:24:30;95962.13;;;32.71;31.92
13604;BME280;24578;48.264;11.436;2023-06-26T15:27:51;95960.19;;;32.61;30.80
13604;BME280;24578;48.264;11.436;2023-06-26T15:31:11;95960.91;;;32.46;31.25
13604;BME280;24578;48.264;11.436;2023-06-26T15:34:32;95955.47;;;32.79;31.47
13604;BME280;24578;48.264;11.436;2023-06-26T15:37:53;95949.50;;;32.67;31.75
13604;BME280;24578;48.264;11.436;2023-06-26T15:41:15;95946.56;;;32.68;32.27
13604;BME280;24578;48.264;11.436;2023-06-26T15:44:36;95942.69;;;32.48;33.34
13604;BME280;24578;48.264;11.436;2023-06-26T15:47:57;95949.19;;;32.25;34.01
13604;BME280;24578;48.264;11.436;2023-06-26T15:51:18;95935.84;;;31.93;35.19
13604;BME280;24578;48.264;11.436;2023-06-26T15:54:39;95944.28;;;31.79;35.65
13604;BME280;24578;48.264;11.436;2023-06-26T15:58:02;95942.44;;;31.57;36.21
13604;BME280;24578;48.264;11.436;2023-06-26T16:01:23;95955.75;;;31.25;36.19
13604;BME280;24578;48.264;11.436;2023-06-26T16:04:45;95959.47;;;30.84;37.61
13604;BME280;24578;48.264;11.436;2023-06-26T16:08:06;95954.84;;;30.41;38.97
13604;BME280;24578;48.264;11.436;2023-06-26T16:11:26;95947.59;;;30.02;41.01
13604;BME280;24578;48.264;11.436;2023-06-26T16:14:47;95942.44;;;29.83;40.81
13604;BME280;24578;48.264;11.436;2023-06-26T16:18:08;95940.19;;;29.46;41.52
13604;BME280;24578;48.264;11.436;2023-06-26T16:21:29;95945.34;;;29.24;43.26
13604;BME280;24578;48.264;11.436;2023-06-26T16:24:50;95945.28;;;29.07;43.55
13604;BME280;24578;48.264;11.436;2023-06-26T16:28:11;95948.09;;;29.00;43.18
13604;BME280;24578;48.264;11.436;2023-06-26T16:31:32;95952.16;;;28.67;45.75
13604;BME280;24578;48.264;11.436;2023-06-26T16:34:53;95957.03;;;28.46;46.35
13604;BME280;24578;48.264;11.436;2023-06-26T16:38:14;95965.25;;;28.33;46.42
13604;BME280;24578;48.264;11.436;2023-06-26T16:41:36;95965.78;;;28.11;46.52
13604;BME280;24578;48.264;11.436;2023-06-26T16:44:56;95963.53;;;27.96;46.63
13604;BME280;24578;48.264;11.436;2023-06-26T16:48:17;95983.59;;;27.80;47.22
13604;BME280;24578;48.264;11.436;2023-06-26T16:51:38;95997.34;;;27.46;52.22
13604;BME280;24578;48.264;11.436;2023-06-26T16:54:59;96006.13;;;27.28;55.58
13604;BME280;24578;48.264;11.436;2023-06-26T16:58:20;96004.13;;;26.86;61.65
13604;BME280;24578;48.264;11.436;2023-06-26T17:01:42;96006.69;;;26.49;68.20
13604;BME280;24578;48.264;11.436;2023-06-26T17:05:03;96010.34;;;26.29;69.34
13604;BME280;24578;48.264;11.436;2023-06-26T17:08:24;96003.66;;;26.20;69.46
13604;BME280;24578;48.264;11.436;2023-06-26T17:11:47;95984.94;;;26.08;67.60
13604;BME280;24578;48.264;11.436;2023-06-26T17:15:08;95988.81;;;26.12;66.81
13604;BME280;24578;48.264;11.436;2023-06-26T17:18:29;95998.47;;;26.00;70.13
13604;BME280;24578;48.264;11.436;2023-06-26T17:21:50;96000.31;;;25.67;74.08
13604;BME280;24578;48.264;11.436;2023-06-26T17:25:11;96011.22;;;25.46;76.94
13604;BME280;24578;48.264;11.436;2023-06-26T17:28:32;95998.38;;;25.36;76.64
13604;BME280;24578;48.264;11.436;2023-06-26T17:31:53;96003.31;;;25.32;77.63
13604;BME280;24578;48.264;11.436;2023-06-26T17:35:14;96006.59;;;25.28;77.30
13604;BME280;24578;48.264;11.436;2023-06-26T17:38:35;95996.63;;;25.16;79.71
13604;BME280;24578;48.264;11.436;2023-06-26T17:41:57;96008.28;;;25.02;82.10